createdAt,value
2019-01-10T00:01:17.359Z,99.90
2019-01-10T00:03:47.663Z,99.90
2019-01-10T00:06:18.466Z,99.90
2019-01-10T00:08:49.746Z,99.90
2019-01-10T00:11:20.029Z,99.90
2019-01-10T00:13:51.357Z,99.90
2019-01-10T00:16:22.432Z,99.90
2019-01-10T00:18:53.535Z,99.90
2019-01-10T00:21:23.783Z,99.90
2019-01-10T00:23:54.244Z,99.90
2019-01-10T00:26:24.312Z,99.90
2019-01-10T00:28:54.513Z,99.90
2019-01-10T00:31:24.792Z,99.90
2019-01-10T00:33:55.293Z,99.90
2019-01-10T00:36:25.226Z,99.90
2019-01-10T00:38:55.386Z,99.90
2019-01-10T00:41:26.097Z,99.90
2019-01-10T00:43:56.078Z,99.90
2019-01-10T00:46:26.442Z,99.90
2019-01-10T00:48:56.508Z,99.90
2019-01-10T00:51:27.023Z,99.90
2019-01-10T00:53:57.133Z,99.90
2019-01-10T00:56:27.131Z,99.90
2019-01-10T00:58:58.753Z,99.90
2019-01-10T01:01:28.884Z,99.90
2019-01-10T01:03:59.099Z,99.90
2019-01-10T01:06:30.444Z,99.90
2019-01-10T01:09:00.602Z,99.90
2019-01-10T01:11:31.715Z,99.90
2019-01-10T01:14:01.769Z,99.90
2019-01-10T01:16:31.819Z,99.90
2019-01-10T01:19:03.165Z,99.90
2019-01-10T01:21:33.487Z,99.90
2019-01-10T01:24:03.572Z,99.90
2019-01-10T01:26:33.589Z,99.90
2019-01-10T01:29:03.793Z,99.90
2019-01-10T01:31:34.912Z,99.90
2019-01-10T01:34:05.517Z,99.90
2019-01-10T01:36:35.729Z,99.90
2019-01-10T01:39:08.097Z,99.90
2019-01-10T01:41:38.223Z,99.90
2019-01-10T01:44:10.056Z,99.90
2019-01-10T01:46:40.252Z,99.90
2019-01-10T01:49:10.745Z,99.90
2019-01-10T01:51:40.919Z,99.90
2019-01-10T01:54:10.927Z,99.90
2019-01-10T01:56:41.031Z,99.90
2019-01-10T01:59:11.262Z,99.90
2019-01-10T02:01:41.202Z,99.90
2019-01-10T02:04:11.382Z,99.90
2019-01-10T02:06:41.599Z,99.90
2019-01-10T02:09:11.805Z,99.90
2019-01-10T02:11:41.927Z,99.90
2019-01-10T02:14:12.510Z,99.90
2019-01-10T02:16:42.493Z,99.90
2019-01-10T02:19:12.653Z,99.90
2019-01-10T02:21:42.703Z,99.90
2019-01-10T02:24:12.902Z,99.90
2019-01-10T02:26:43.121Z,99.90
2019-01-10T02:29:13.254Z,99.90
2019-01-10T02:31:43.315Z,99.90
2019-01-10T02:34:13.325Z,99.90
2019-01-10T02:36:43.231Z,99.90
2019-01-10T02:39:13.469Z,99.90
2019-01-10T02:41:44.585Z,99.90
2019-01-10T02:44:14.933Z,99.90
2019-01-10T02:46:45.057Z,99.90
2019-01-10T02:49:15.426Z,99.90
2019-01-10T02:51:45.721Z,99.90
2019-01-10T02:54:18.065Z,99.90
2019-01-10T02:56:50.573Z,99.90
2019-01-10T02:59:20.802Z,99.90
2019-01-10T03:01:50.744Z,99.90
2019-01-10T03:04:20.753Z,99.90
2019-01-10T03:06:50.715Z,99.90
2019-01-10T03:09:23.132Z,99.90
2019-01-10T03:11:52.434Z,99.90
2019-01-10T03:14:22.377Z,99.90
2019-01-10T03:16:52.664Z,99.90
2019-01-10T03:19:22.725Z,99.90
2019-01-10T03:21:52.668Z,99.90
2019-01-10T03:24:30.617Z,99.90
2019-01-10T03:27:00.725Z,99.90
2019-01-10T03:29:30.702Z,99.90
2019-01-10T03:32:02.483Z,99.90
2019-01-10T03:34:32.650Z,99.90
2019-01-10T03:37:02.701Z,99.90
2019-01-10T03:39:32.829Z,99.90
2019-01-10T03:42:03.497Z,99.90
2019-01-10T03:44:34.321Z,99.90
2019-01-10T03:47:04.885Z,99.90
2019-01-10T03:49:34.842Z,99.90
2019-01-10T03:52:04.946Z,99.90
2019-01-10T03:54:34.933Z,99.90
2019-01-10T03:57:05.085Z,99.90
2019-01-10T03:59:34.998Z,99.90
2019-01-10T04:02:05.242Z,99.90
2019-01-10T04:04:35.287Z,99.90
2019-01-10T04:07:05.517Z,99.90
2019-01-10T04:09:35.710Z,99.90
2019-01-10T04:12:05.839Z,99.90
2019-01-10T04:14:35.802Z,99.90
2019-01-10T04:17:05.910Z,99.90
2019-01-10T04:19:36.001Z,99.90
2019-01-10T04:22:05.949Z,99.90
2019-01-10T04:24:35.878Z,99.90
2019-01-10T04:27:06.013Z,99.90
2019-01-10T04:29:36.092Z,99.90
2019-01-10T04:32:07.885Z,99.90
2019-01-10T04:34:38.059Z,99.90
2019-01-10T04:37:09.485Z,99.90
2019-01-10T04:39:40.148Z,99.90
2019-01-10T04:42:11.731Z,99.90
2019-01-10T04:44:42.907Z,99.90
2019-01-10T04:47:12.980Z,99.90
2019-01-10T04:49:42.986Z,99.90
2019-01-10T04:52:14.061Z,99.90
2019-01-10T04:54:44.056Z,99.90
2019-01-10T04:57:15.030Z,99.90
2019-01-10T04:59:45.181Z,99.90
2019-01-10T05:02:18.471Z,99.90
2019-01-10T05:04:46.661Z,99.90
2019-01-10T05:07:16.675Z,99.90
2019-01-10T05:09:46.755Z,99.90
2019-01-10T05:12:16.777Z,99.90
2019-01-10T05:14:46.814Z,99.90
2019-01-10T05:17:16.742Z,99.90
2019-01-10T05:19:46.733Z,99.90
2019-01-10T05:22:16.758Z,99.90
2019-01-10T05:24:46.701Z,99.90
2019-01-10T05:27:16.754Z,99.90
2019-01-10T05:29:46.657Z,99.90
2019-01-10T05:32:16.653Z,99.90
2019-01-10T05:34:46.697Z,99.90
2019-01-10T05:37:16.740Z,99.90
2019-01-10T05:39:47.742Z,99.90
2019-01-10T05:42:18.564Z,99.90
2019-01-10T05:44:48.581Z,99.90
2019-01-10T05:47:18.685Z,99.90
2019-01-10T05:49:48.798Z,99.90
2019-01-10T05:52:18.778Z,99.90
2019-01-10T05:54:48.860Z,99.90
2019-01-10T05:57:19.846Z,99.90
2019-01-10T05:59:49.822Z,99.90
2019-01-10T06:02:19.745Z,99.90
2019-01-10T06:04:49.646Z,99.90
2019-01-10T06:07:19.589Z,99.90
2019-01-10T06:09:49.499Z,99.90
2019-01-10T06:12:19.493Z,99.90
2019-01-10T06:14:49.610Z,99.90
2019-01-10T06:17:20.201Z,99.90
2019-01-10T06:19:52.753Z,99.90
2019-01-10T06:22:22.733Z,99.90
2019-01-10T06:24:52.732Z,99.90
2019-01-10T06:27:22.891Z,99.90
2019-01-10T06:29:52.970Z,99.90
2019-01-10T06:32:23.069Z,99.90
2019-01-10T06:34:53.249Z,99.90
2019-01-10T06:37:23.220Z,99.90
2019-01-10T06:39:53.354Z,99.90
2019-01-10T06:42:24.373Z,99.90
2019-01-10T06:44:54.486Z,99.90
2019-01-10T06:47:25.785Z,99.90
2019-01-10T06:49:56.049Z,99.90
2019-01-10T06:52:26.253Z,99.90
2019-01-10T06:54:56.889Z,99.90
2019-01-10T06:57:27.091Z,99.90
2019-01-10T06:59:57.244Z,99.90
2019-01-10T07:02:27.444Z,99.90
2019-01-10T07:04:57.605Z,99.90
2019-01-10T07:07:27.857Z,99.90
2019-01-10T07:09:58.054Z,99.90
2019-01-10T07:12:28.158Z,99.90
2019-01-10T07:15:00.296Z,99.90
2019-01-10T07:17:30.798Z,99.90
2019-01-10T07:20:01.126Z,99.90
2019-01-10T07:22:31.175Z,99.90
2019-01-10T07:25:01.318Z,99.90
2019-01-10T07:27:31.436Z,99.90
2019-01-10T07:30:01.554Z,99.90
2019-01-10T07:32:33.079Z,99.90
2019-01-10T07:35:03.276Z,99.90
2019-01-10T07:37:33.700Z,99.90
2019-01-10T07:40:07.337Z,99.90
2019-01-10T07:42:39.635Z,99.90
2019-01-10T07:45:13.658Z,99.90
2019-01-10T07:47:49.319Z,99.90
2019-01-10T07:50:23.812Z,99.90
2019-01-10T07:52:56.461Z,99.90
2019-01-10T07:55:31.437Z,99.90
2019-01-10T07:58:01.587Z,99.90
2019-01-10T08:00:33.005Z,99.90
2019-01-10T08:03:08.783Z,99.90
2019-01-10T08:05:40.391Z,99.90
2019-01-10T08:08:14.362Z,99.90
2019-01-10T08:10:45.693Z,99.90
2019-01-10T08:13:19.579Z,99.90
2019-01-10T08:15:50.407Z,99.90
2019-01-10T08:18:21.560Z,99.90
2019-01-10T08:20:58.815Z,99.90
2019-01-10T08:23:28.938Z,99.90
2019-01-10T08:25:59.561Z,99.90
2019-01-10T08:28:29.692Z,99.90
2019-01-10T08:30:59.695Z,99.90
2019-01-10T08:33:29.897Z,99.90
2019-01-10T08:36:03.697Z,99.90
2019-01-10T08:38:34.470Z,99.90
2019-01-10T08:41:05.027Z,99.90
2019-01-10T08:43:35.194Z,99.90
2019-01-10T08:46:06.567Z,99.90
2019-01-10T08:48:36.963Z,99.90
2019-01-10T08:51:07.211Z,99.90
2019-01-10T08:53:37.346Z,99.90
2019-01-10T08:56:07.459Z,99.90
2019-01-10T08:58:40.768Z,99.90
2019-01-10T09:01:10.986Z,99.90
2019-01-10T09:03:41.844Z,99.90
2019-01-10T09:06:13.630Z,99.90
2019-01-10T09:08:43.971Z,99.90
2019-01-10T09:11:14.248Z,99.90
2019-01-10T09:13:44.819Z,99.90
2019-01-10T09:16:17.207Z,99.90
2019-01-10T09:18:48.607Z,99.90
2019-01-10T09:21:18.826Z,99.90
2019-01-10T09:23:48.883Z,99.90
2019-01-10T09:26:18.933Z,99.90
2019-01-10T09:28:49.010Z,99.90
2019-01-10T09:31:18.970Z,99.90
2019-01-10T09:33:49.194Z,99.90
2019-01-10T09:36:19.443Z,99.90
2019-01-10T09:38:49.516Z,99.90
2019-01-10T09:41:19.744Z,99.90
2019-01-10T09:43:49.800Z,99.90
2019-01-10T09:46:20.126Z,99.90
2019-01-10T09:48:50.291Z,99.90
2019-01-10T09:51:21.698Z,99.90
2019-01-10T09:53:51.971Z,99.90
2019-01-10T09:56:22.295Z,99.90
2019-01-10T09:58:52.436Z,99.90
2019-01-10T10:01:22.779Z,99.90
2019-01-10T10:03:52.889Z,99.90
2019-01-10T10:06:23.305Z,99.90
2019-01-10T10:08:54.745Z,99.90
2019-01-10T10:11:33.847Z,99.90
2019-01-10T10:13:58.378Z,99.90
2019-01-10T10:16:28.526Z,99.90
2019-01-10T10:18:58.506Z,99.90
2019-01-10T10:21:28.592Z,99.90
2019-01-10T10:23:58.619Z,99.90
2019-01-10T10:26:30.349Z,99.80
2019-01-10T10:29:03.925Z,99.50
2019-01-10T10:31:34.177Z,99.90
2019-01-10T10:34:04.597Z,99.70
2019-01-10T10:36:34.826Z,98.80
2019-01-10T10:39:07.388Z,99.40
2019-01-10T10:41:40.492Z,98.80
2019-01-10T10:44:12.710Z,99.00
2019-01-10T10:46:44.197Z,99.20
2019-01-10T10:49:15.632Z,99.20
2019-01-10T10:51:46.080Z,98.90
2019-01-10T10:54:16.188Z,99.30
2019-01-10T10:56:46.446Z,99.70
2019-01-10T10:59:17.052Z,98.80
2019-01-10T11:01:46.994Z,99.00
2019-01-10T11:04:17.080Z,99.40
2019-01-10T11:06:47.296Z,99.20
2019-01-10T11:09:17.578Z,99.00
2019-01-10T11:11:47.890Z,99.10
2019-01-10T11:14:19.102Z,99.30
2019-01-10T11:16:49.235Z,99.40
2019-01-10T11:19:38.580Z,99.80
2019-01-10T11:22:08.976Z,99.60
2019-01-10T11:24:41.711Z,99.40
2019-01-10T11:27:11.795Z,99.80
2019-01-10T11:29:42.047Z,99.70
2019-01-10T11:32:13.401Z,99.70
2019-01-10T11:34:43.804Z,99.60
2019-01-10T11:37:13.971Z,99.90
2019-01-10T11:39:44.115Z,99.90
2019-01-10T11:42:14.097Z,99.90
2019-01-10T11:44:44.305Z,99.90
2019-01-10T11:47:14.393Z,99.90
2019-01-10T11:49:46.069Z,99.90
2019-01-10T11:52:16.018Z,99.90
2019-01-10T11:54:46.315Z,99.80
2019-01-10T11:57:16.231Z,99.90
2019-01-10T11:59:46.325Z,99.90
2019-01-10T12:02:17.182Z,99.90
2019-01-10T12:04:47.223Z,99.90
2019-01-10T12:07:17.303Z,99.90
2019-01-10T12:09:47.435Z,99.90
2019-01-10T12:12:17.646Z,99.90
2019-01-10T12:14:47.663Z,99.90
2019-01-10T12:17:18.839Z,99.90
2019-01-10T12:19:48.813Z,99.40
2019-01-10T12:22:18.769Z,99.30
2019-01-10T12:24:48.931Z,99.70
2019-01-10T12:27:19.015Z,99.50
2019-01-10T12:29:49.060Z,99.50
2019-01-10T12:32:19.162Z,99.70
2019-01-10T12:34:49.409Z,99.80
2019-01-10T12:37:19.674Z,99.80
2019-01-10T12:39:49.762Z,99.80
2019-01-10T12:42:19.790Z,99.90
2019-01-10T12:44:49.931Z,99.90
2019-01-10T12:47:20.023Z,99.50
2019-01-10T12:49:50.394Z,99.90
2019-01-10T12:52:20.478Z,99.90
2019-01-10T12:54:50.513Z,99.80
2019-01-10T12:57:20.915Z,99.90
2019-01-10T12:59:53.564Z,99.90
2019-01-10T13:02:25.226Z,99.90
2019-01-10T13:04:55.379Z,99.80
2019-01-10T13:07:25.579Z,99.80
2019-01-10T13:09:57.950Z,99.90
2019-01-10T13:12:28.161Z,99.90
2019-01-10T13:14:58.524Z,99.90
2019-01-10T13:17:28.947Z,99.80
2019-01-10T13:19:59.235Z,99.40
2019-01-10T13:22:29.790Z,99.80
2019-01-10T13:24:59.795Z,99.90
2019-01-10T13:27:29.994Z,99.60
2019-01-10T13:30:00.097Z,99.80
2019-01-10T13:32:30.431Z,99.90
2019-01-10T13:35:00.427Z,99.90
2019-01-10T13:37:30.607Z,99.60
2019-01-10T13:40:01.005Z,99.70
2019-01-10T13:42:31.382Z,99.60
2019-01-10T13:45:01.609Z,99.30
2019-01-10T13:47:33.122Z,99.50
2019-01-10T13:50:03.666Z,99.60
2019-01-10T13:52:34.125Z,99.90
2019-01-10T13:55:06.368Z,99.00
2019-01-10T13:57:37.627Z,99.60
2019-01-10T14:00:12.059Z,99.50
2019-01-10T14:02:42.527Z,99.80
2019-01-10T14:05:12.801Z,99.70
2019-01-10T14:07:42.994Z,99.60
2019-01-10T14:10:15.624Z,99.70
2019-01-10T14:12:46.183Z,99.90
2019-01-10T14:15:19.419Z,99.90
2019-01-10T14:17:49.527Z,99.90
2019-01-10T14:20:19.693Z,99.90
2019-01-10T14:22:50.373Z,99.90
2019-01-10T14:25:22.270Z,99.90
2019-01-10T14:27:59.330Z,99.90
2019-01-10T14:30:28.239Z,99.90
2019-01-10T14:32:58.413Z,99.90
2019-01-10T14:35:28.887Z,99.90
2019-01-10T14:37:59.139Z,99.90
2019-01-10T14:40:29.179Z,99.90
2019-01-10T14:42:59.133Z,99.90
2019-01-10T14:45:29.354Z,99.90
2019-01-10T14:48:01.870Z,99.90
2019-01-10T14:50:31.265Z,99.90
2019-01-10T14:53:02.034Z,99.90
2019-01-10T14:55:33.357Z,99.90
2019-01-10T14:58:03.699Z,99.90
2019-01-10T15:00:33.952Z,99.90
2019-01-10T15:03:04.264Z,99.90
2019-01-10T15:05:34.993Z,99.90
2019-01-10T15:08:06.510Z,99.90
2019-01-10T15:10:36.798Z,99.90
2019-01-10T15:13:07.036Z,99.90
2019-01-10T15:15:37.764Z,99.90
2019-01-10T15:18:09.348Z,99.90
2019-01-10T15:20:39.377Z,99.90
2019-01-10T15:23:09.379Z,99.90
2019-01-10T15:25:43.060Z,99.90
2019-01-10T15:28:13.103Z,99.90
2019-01-10T15:30:44.060Z,99.90
2019-01-10T15:33:14.139Z,99.90
2019-01-10T15:35:44.299Z,99.90
2019-01-10T15:38:15.067Z,99.90
2019-01-10T15:40:45.340Z,99.90
2019-01-10T15:43:15.869Z,99.90
2019-01-10T15:45:46.308Z,99.90
2019-01-10T15:48:16.542Z,99.90
2019-01-10T15:50:46.638Z,99.90
2019-01-10T15:53:17.309Z,99.90
2019-01-10T15:55:48.162Z,99.90
2019-01-10T15:58:18.207Z,99.90
2019-01-10T16:00:48.388Z,99.90
2019-01-10T16:03:19.078Z,99.90
2019-01-10T16:05:49.635Z,99.90
2019-01-10T16:08:21.238Z,99.90
2019-01-10T16:10:52.575Z,99.90
2019-01-10T16:13:25.874Z,99.90
2019-01-10T16:15:56.336Z,99.90
2019-01-10T16:18:27.439Z,99.90
2019-01-10T16:20:58.117Z,99.90
2019-01-10T16:23:29.794Z,99.90
2019-01-10T16:26:00.347Z,99.90
2019-01-10T16:28:31.159Z,99.90
2019-01-10T16:31:02.478Z,99.90
2019-01-10T16:33:34.515Z,99.90
2019-01-10T16:36:05.168Z,99.90
2019-01-10T16:38:37.360Z,99.90
2019-01-10T16:41:11.238Z,99.90
2019-01-10T16:43:41.925Z,99.90
2019-01-10T16:46:12.765Z,99.90
2019-01-10T16:48:44.211Z,99.90
2019-01-10T16:51:14.875Z,99.90
2019-01-10T16:53:45.686Z,99.90
2019-01-10T16:56:16.519Z,99.90
2019-01-10T16:58:48.795Z,99.90
2019-01-10T17:01:19.358Z,99.90
2019-01-10T17:03:50.615Z,99.90
2019-01-10T17:06:21.294Z,99.90
2019-01-10T17:08:51.834Z,99.90
2019-01-10T17:11:22.383Z,99.90
2019-01-10T17:13:53.505Z,99.90
2019-01-10T17:16:24.070Z,99.80
2019-01-10T17:18:57.228Z,99.80
2019-01-10T17:21:27.911Z,99.70
2019-01-10T17:23:58.337Z,99.80
2019-01-10T17:26:29.332Z,99.90
2019-01-10T17:29:01.302Z,99.90
2019-01-10T17:31:31.692Z,99.90
2019-01-10T17:34:02.310Z,99.90
2019-01-10T17:36:32.962Z,99.90
2019-01-10T17:39:04.472Z,99.90
2019-01-10T17:41:36.653Z,99.90
2019-01-10T17:44:07.630Z,99.90
2019-01-10T17:46:38.481Z,99.90
2019-01-10T17:49:14.710Z,99.90
2019-01-10T17:51:46.748Z,99.90
2019-01-10T17:54:17.670Z,99.60
2019-01-10T17:56:49.957Z,99.70
2019-01-10T17:59:22.076Z,99.50
2019-01-10T18:01:54.488Z,99.90
2019-01-10T18:04:26.400Z,99.90
2019-01-10T18:06:58.126Z,99.90
2019-01-10T18:09:30.852Z,99.90
2019-01-10T18:12:01.656Z,99.90
2019-01-10T18:14:33.238Z,99.90
2019-01-10T18:17:03.958Z,99.90
2019-01-10T18:19:34.864Z,99.90
2019-01-10T18:22:09.104Z,99.90
2019-01-10T18:24:43.892Z,99.90
2019-01-10T18:27:16.751Z,99.90
2019-01-10T18:29:47.675Z,99.90
2019-01-10T18:32:20.343Z,99.90
2019-01-10T18:34:51.767Z,99.90
2019-01-10T18:37:36.197Z,99.90
2019-01-10T18:40:11.378Z,99.90
2019-01-10T18:42:42.389Z,99.90
2019-01-10T18:45:27.591Z,99.90
2019-01-10T18:47:58.444Z,99.90
2019-01-10T18:50:29.786Z,99.90
2019-01-10T18:53:05.032Z,99.90
2019-01-10T18:55:41.110Z,99.90
2019-01-10T18:58:14.638Z,99.90
2019-01-10T19:00:45.518Z,99.90
2019-01-10T19:03:17.991Z,99.90
2019-01-10T19:05:49.505Z,99.90
2019-01-10T19:08:21.471Z,99.90
2019-01-10T19:10:54.097Z,99.90
2019-01-10T19:13:26.737Z,99.90
2019-01-10T19:15:58.038Z,99.90
2019-01-10T19:18:29.239Z,99.90
2019-01-10T19:21:00.394Z,99.90
2019-01-10T19:23:33.678Z,99.90
2019-01-10T19:26:04.876Z,99.90
2019-01-10T19:28:37.050Z,99.90
2019-01-10T19:31:12.477Z,99.90
2019-01-10T19:33:42.931Z,99.90
2019-01-10T19:36:16.678Z,99.90
2019-01-10T19:38:47.558Z,99.90
2019-01-10T19:41:18.199Z,99.90
2019-01-10T19:43:49.118Z,99.90
2019-01-10T19:46:20.084Z,99.90
2019-01-10T19:48:52.751Z,99.90
2019-01-10T19:51:23.474Z,99.90
2019-01-10T19:53:56.127Z,99.90
2019-01-10T19:56:27.478Z,99.90
2019-01-10T19:58:59.078Z,99.90
2019-01-10T20:01:30.038Z,99.90
2019-01-10T20:04:00.988Z,99.90
2019-01-10T20:06:38.880Z,99.90
2019-01-10T20:09:14.980Z,99.90
2019-01-10T20:11:46.521Z,99.90
2019-01-10T20:14:17.492Z,99.90
2019-01-10T20:16:48.119Z,99.90
2019-01-10T20:19:19.229Z,99.90
2019-01-10T20:21:50.210Z,99.90
2019-01-10T20:24:22.856Z,99.90
2019-01-10T20:26:54.191Z,99.90
2019-01-10T20:29:25.838Z,99.90
2019-01-10T20:31:56.637Z,99.90
2019-01-10T20:34:35.037Z,99.90
2019-01-10T20:37:16.559Z,99.90
2019-01-10T20:39:47.482Z,99.90
2019-01-10T20:42:17.982Z,99.90
2019-01-10T20:44:50.191Z,99.90
2019-01-10T20:47:25.181Z,99.90
2019-01-10T20:49:57.079Z,99.90
2019-01-10T20:52:28.570Z,99.90
2019-01-10T20:55:05.998Z,99.90
2019-01-10T20:57:37.688Z,99.90
2019-01-10T21:00:14.353Z,99.90
2019-01-10T21:02:47.751Z,99.90
2019-01-10T21:05:18.902Z,99.90
2019-01-10T21:07:51.144Z,99.90
2019-01-10T21:10:24.125Z,99.90
2019-01-10T21:12:58.246Z,99.90
2019-01-10T21:15:32.543Z,99.90
2019-01-10T21:18:03.986Z,99.90
2019-01-10T21:20:35.569Z,99.90
2019-01-10T21:23:06.117Z,99.90
2019-01-10T21:25:37.623Z,99.90
2019-01-10T21:28:08.942Z,99.90
2019-01-10T21:30:39.550Z,99.90
2019-01-10T21:33:11.360Z,99.90
2019-01-10T21:35:43.611Z,99.90
2019-01-10T21:38:15.078Z,99.90
2019-01-10T21:40:45.749Z,99.90
2019-01-10T21:43:16.607Z,99.90
2019-01-10T21:45:47.430Z,99.90
2019-01-10T21:48:19.434Z,99.90
2019-01-10T21:50:50.064Z,99.90
2019-01-10T21:53:20.774Z,99.90
2019-01-10T21:55:53.270Z,99.90
2019-01-10T21:58:24.702Z,99.90
2019-01-10T22:00:55.158Z,99.90
2019-01-10T22:03:25.646Z,99.90
2019-01-10T22:05:56.518Z,99.90
2019-01-10T22:08:26.684Z,99.90
2019-01-10T22:10:57.331Z,99.90
2019-01-10T22:13:28.120Z,99.90
2019-01-10T22:15:59.529Z,99.90
2019-01-10T22:18:31.020Z,99.90
2019-01-10T22:21:03.083Z,99.90
2019-01-10T22:23:35.320Z,99.90
2019-01-10T22:26:06.699Z,99.90
2019-01-10T22:28:38.286Z,99.90
2019-01-10T22:31:08.638Z,99.90
2019-01-10T22:33:39.358Z,99.90
2019-01-10T22:36:09.790Z,99.90
2019-01-10T22:38:41.668Z,99.90
2019-01-10T22:41:11.798Z,99.90
2019-01-10T22:43:42.717Z,99.90
2019-01-10T22:46:13.997Z,99.90
2019-01-10T22:48:48.158Z,99.90
2019-01-10T22:51:18.409Z,99.90
2019-01-10T22:53:48.382Z,99.90
2019-01-10T22:56:18.378Z,99.90
2019-01-10T22:58:50.517Z,99.90
2019-01-10T23:01:25.097Z,99.90
2019-01-10T23:03:55.575Z,99.90
2019-01-10T23:06:25.798Z,99.90
2019-01-10T23:08:57.530Z,99.90
2019-01-10T23:11:28.072Z,99.90
2019-01-10T23:13:58.373Z,99.90
2019-01-10T23:16:30.699Z,99.90
2019-01-10T23:19:02.845Z,99.90
2019-01-10T23:21:33.438Z,99.90
2019-01-10T23:24:04.719Z,99.90
2019-01-10T23:26:36.354Z,99.90
2019-01-10T23:29:06.541Z,99.90
2019-01-10T23:31:39.573Z,99.90
2019-01-10T23:34:10.956Z,99.90
2019-01-10T23:36:41.714Z,99.90
2019-01-10T23:39:14.506Z,99.90
2019-01-10T23:41:45.981Z,99.90
2019-01-10T23:44:18.113Z,99.90
2019-01-10T23:46:50.755Z,99.90
2019-01-10T23:49:23.248Z,99.90
2019-01-10T23:51:53.733Z,99.90
2019-01-10T23:54:25.180Z,99.90
2019-01-10T23:56:55.776Z,99.90
2019-01-10T23:59:25.785Z,99.90
